This is the latest recevied weather packets stored in our database for station/object M0TJX-1. If no packets are shown the sender has not sent any weather packets the latest 10 day(s).
| Time | Temp. | Humidity | Pressure | Rain* | Wind** | Luminosity | Snow |
|---|---|---|---|---|---|---|---|
| 1787731824 | 19.44° C | 79% | 1012.3 hPa | 0 mm | - | - | - |
| 1787730924 | 18.89° C | 80% | 1012.3 hPa | 0 mm | - | - | - |
| 1787730024 | 17.78° C | 83% | 1012.1 hPa | 0 mm | - | - | - |
| 1787729124 | 17.22° C | 83% | 1012.1 hPa | 0 mm | - | - | - |
| 1787727324 | 17.22° C | 83% | 1012.1 hPa | 0 mm | - | - | - |
| 1787726424 | 17.22° C | 83% | 1012 hPa | 0 mm | - | - | - |
| 1787725524 | 16.67° C | 83% | 1012 hPa | 0 mm | - | - | - |
| 1787724624 | 16.67° C | 83% | 1012 hPa | 0 mm | - | - | - |
| 1787723724 | 16.67° C | 83% | 1011.9 hPa | 0 mm | - | - | - |
| 1787722824 | 16.67° C | 84% | 1011.9 hPa | 0 mm | - | - | - |
| 1787721924 | 16.67° C | 84% | 1011.9 hPa | 0 mm | - | - | - |
| 1787721025 | 16.67° C | 83% | 1011.7 hPa | 0 mm | - | - | - |
| 1787720125 | 16.67° C | 83% | 1011.7 hPa | 0 mm | - | - | - |
| 1787719225 | 16.67° C | 83% | 1011.6 hPa | 0 mm | - | - | - |
| 1787718325 | 16.67° C | 82% | 1011.4 hPa | 0 mm | - | - | - |
| 1787717425 | 17.22° C | 81% | 1011.3 hPa | 0 mm | - | - | - |
| 1787716525 | 17.22° C | 82% | 1011.3 hPa | 0 mm | - | - | - |
| 1787714725 | 17.22° C | 83% | 1011.4 hPa | 0 mm | - | - | - |
| 1787713825 | 17.22° C | 81% | 1011.3 hPa | 0 mm | - | - | - |
| 1787712925 | 17.78° C | 80% | 1011.4 hPa | 0 mm | - | - | - |
| 1787712025 | 17.78° C | 78% | 1011.5 hPa | 0 mm | - | - | - |
| 1787711125 | 17.78° C | 75% | 1011.5 hPa | 0 mm | - | - | - |
| 1787710225 | 18.33° C | 74% | 1011.5 hPa | 0 mm | - | - | - |
| 1787709325 | 18.33° C | 73% | 1011.4 hPa | 0 mm | - | - | - |
| 1787708425 | 18.33° C | 71% | 1011.5 hPa | 0 mm | - | - | - |
* Rain latest hour (hover to see other rain measurements)
** Current wind speed in m/s (hover to see current wind gust speed)